Time,TemperatureF,DewpointF,PressureIn,WindDirection,WindDirectionDegrees,WindSpeedMPH,WindSpeedGustMPH,Humidity,HourlyPrecipIn,Conditions,Clouds,dailyrainin,SolarRadiationWatts/m^2,SoftwareType,DateUTC
2013-04-10 00:03:00,64.0,61.0,-100.00,SW,221,7.0,12.0,90,0.00,,,0.00,0.000000,,2013-04-10 04:03:00,
2013-04-10 00:33:00,64.0,61.0,-100.00,SW,215,7.0,13.0,89,0.00,,,0.00,0.000000,,2013-04-10 04:33:00,
2013-04-10 00:43:00,64.0,61.0,-100.00,SW,215,7.0,13.0,89,0.00,,,0.00,0.000000,,2013-04-10 04:43:00,
2013-04-10 00:53:00,64.0,61.0,-100.00,SW,215,7.0,13.0,89,0.00,,,0.00,0.000000,,2013-04-10 04:53:00,
2013-04-10 01:03:00,64.0,61.0,-100.00,SW,215,7.0,13.0,89,0.00,,,0.00,0.000000,,2013-04-10 05:03:00,
2013-04-10 01:33:00,64.0,61.0,-100.00,SSW,210,6.0,11.0,90,0.00,,,0.00,0.000000,,2013-04-10 05:33:00,
2013-04-10 01:43:00,64.0,61.0,-100.00,SSW,210,6.0,11.0,90,0.00,,,0.00,0.000000,,2013-04-10 05:43:00,
2013-04-10 01:53:00,64.0,61.0,-100.00,SSW,210,6.0,11.0,90,0.00,,,0.00,0.000000,,2013-04-10 05:53:00,
2013-04-10 02:03:00,64.0,61.0,-100.00,SSW,210,6.0,11.0,90,0.00,,,0.00,0.000000,,2013-04-10 06:03:00,
2013-04-10 02:32:00,62.0,60.0,-100.00,SW,215,4.0,9.0,92,0.00,,,0.00,0.000000,,2013-04-10 06:32:00,
2013-04-10 02:43:00,62.0,60.0,-100.00,SW,215,4.0,9.0,92,0.00,,,0.00,0.000000,,2013-04-10 06:43:00,
2013-04-10 02:52:00,62.0,60.0,-100.00,SW,215,4.0,9.0,92,0.00,,,0.00,0.000000,,2013-04-10 06:52:00,
2013-04-10 03:02:00,62.0,60.0,-100.00,SW,215,4.0,9.0,92,0.00,,,0.00,0.000000,,2013-04-10 07:02:00,
2013-04-10 03:33:00,63.0,61.0,-100.00,SW,225,6.0,12.0,93,0.00,,,0.00,0.000000,,2013-04-10 07:33:00,
2013-04-10 03:43:00,63.0,61.0,-100.00,SW,225,6.0,12.0,93,0.00,,,0.00,0.000000,,2013-04-10 07:43:00,
2013-04-10 03:52:00,63.0,61.0,-100.00,SW,225,6.0,12.0,93,0.00,,,0.00,0.000000,,2013-04-10 07:52:00,
2013-04-10 04:02:00,63.0,61.0,-100.00,SW,225,6.0,12.0,93,0.00,,,0.00,0.000000,,2013-04-10 08:02:00,
2013-04-10 04:32:00,63.0,61.0,-100.00,SW,217,6.0,11.0,93,0.00,,,0.00,0.000000,,2013-04-10 08:32:00,
2013-04-10 04:43:00,63.0,61.0,-100.00,SW,217,6.0,11.0,93,0.00,,,0.00,0.000000,,2013-04-10 08:43:00,
2013-04-10 04:52:00,63.0,61.0,-100.00,SW,217,6.0,11.0,93,0.00,,,0.00,0.000000,,2013-04-10 08:52:00,
2013-04-10 05:02:00,63.0,61.0,-100.00,SW,217,6.0,11.0,93,0.00,,,0.00,0.000000,,2013-04-10 09:02:00,
2013-04-10 05:33:00,63.0,62.0,-100.00,SW,226,6.0,11.0,95,0.00,,,0.00,0.000000,,2013-04-10 09:33:00,
2013-04-10 05:43:00,63.0,62.0,-100.00,SW,226,6.0,11.0,95,0.00,,,0.00,0.000000,,2013-04-10 09:43:00,
2013-04-10 05:53:00,63.0,62.0,-100.00,SW,226,6.0,11.0,95,0.00,,,0.00,0.000000,,2013-04-10 09:53:00,
2013-04-10 06:03:00,63.0,62.0,-100.00,SW,226,6.0,11.0,95,0.00,,,0.00,0.000000,,2013-04-10 10:03:00,
2013-04-10 06:33:00,63.0,62.0,-100.00,SW,234,5.0,10.0,96,0.00,,,0.00,0.000000,,2013-04-10 10:33:00,
2013-04-10 06:43:00,63.0,62.0,-100.00,SW,234,5.0,10.0,96,0.00,,,0.00,0.000000,,2013-04-10 10:43:00,
2013-04-10 06:53:00,63.0,62.0,-100.00,SW,234,5.0,10.0,96,0.00,,,0.00,0.000000,,2013-04-10 10:53:00,
2013-04-10 07:03:00,63.0,62.0,-100.00,SW,234,5.0,10.0,96,0.00,,,0.00,0.000000,,2013-04-10 11:03:00,
2013-04-10 09:33:00,69.0,63.0,-100.00,WSW,256,6.0,11.0,81,-99.99,,,0.00,358.000000,,2013-04-10 13:33:00,
2013-04-10 09:43:00,69.0,63.0,-100.00,WSW,256,6.0,11.0,81,-99.99,,,0.00,358.000000,,2013-04-10 13:43:00,
2013-04-10 09:53:00,69.0,63.0,-100.00,WSW,256,6.0,11.0,81,-99.99,,,0.00,358.000000,,2013-04-10 13:53:00,
2013-04-10 10:02:00,69.0,63.0,-100.00,WSW,256,6.0,11.0,81,-99.99,,,0.00,358.000000,,2013-04-10 14:02:00,
2013-04-10 10:33:00,73.0,61.0,-100.00,WSW,255,9.0,15.0,65,0.00,,,0.00,582.000000,,2013-04-10 14:33:00,
2013-04-10 10:42:00,73.0,61.0,-100.00,WSW,255,9.0,15.0,65,0.00,,,0.00,582.000000,,2013-04-10 14:42:00,
2013-04-10 10:52:00,73.0,61.0,-100.00,WSW,255,9.0,15.0,65,0.00,,,0.00,582.000000,,2013-04-10 14:52:00,
2013-04-10 11:03:00,73.0,61.0,-100.00,WSW,255,9.0,15.0,65,0.00,,,0.00,582.000000,,2013-04-10 15:03:00,
2013-04-10 12:33:00,73.0,62.0,-100.00,SSW,206,11.0,16.0,68,-99.99,,,0.00,932.000000,,2013-04-10 16:33:00,
2013-04-10 12:43:00,73.0,62.0,-100.00,SSW,206,11.0,16.0,68,-99.99,,,0.00,932.000000,,2013-04-10 16:43:00,
2013-04-10 12:53:00,73.0,62.0,-100.00,SSW,206,11.0,16.0,68,-99.99,,,0.00,932.000000,,2013-04-10 16:53:00,
2013-04-10 13:03:00,73.0,62.0,-100.00,SSW,206,11.0,16.0,68,-99.99,,,0.00,932.000000,,2013-04-10 17:03:00,
2013-04-10 13:34:00,75.0,62.0,-100.00,SSW,200,10.0,19.0,64,0.00,,,0.00,1018.000000,,2013-04-10 17:34:00,
2013-04-10 13:43:00,75.0,62.0,-100.00,SSW,200,10.0,19.0,64,0.00,,,0.00,1018.000000,,2013-04-10 17:43:00,
2013-04-10 13:53:00,75.0,62.0,-100.00,SSW,200,10.0,19.0,64,0.00,,,0.00,1018.000000,,2013-04-10 17:53:00,
2013-04-10 14:03:00,75.0,62.0,-100.00,SSW,200,10.0,19.0,64,0.00,,,0.00,1018.000000,,2013-04-10 18:03:00,
2013-04-10 14:33:00,74.0,61.0,-100.00,SSW,209,12.0,21.0,63,0.00,,,0.00,1033.000000,,2013-04-10 18:33:00,
2013-04-10 14:43:00,74.0,61.0,-100.00,SSW,209,12.0,21.0,63,0.00,,,0.00,1033.000000,,2013-04-10 18:43:00,
2013-04-10 14:53:00,74.0,61.0,-100.00,SSW,209,12.0,21.0,63,0.00,,,0.00,1033.000000,,2013-04-10 18:53:00,
2013-04-10 15:03:00,74.0,61.0,-100.00,SSW,209,12.0,21.0,63,0.00,,,0.00,1033.000000,,2013-04-10 19:03:00,
2013-04-10 15:33:00,75.0,59.0,-100.00,SW,221,12.0,21.0,58,0.00,,,0.00,970.000000,,2013-04-10 19:33:00,
2013-04-10 15:42:00,75.0,59.0,-100.00,SW,221,12.0,21.0,58,0.00,,,0.00,970.000000,,2013-04-10 19:42:00,
2013-04-10 15:53:00,75.0,59.0,-100.00,SW,221,12.0,21.0,58,0.00,,,0.00,970.000000,,2013-04-10 19:53:00,
2013-04-10 16:03:00,75.0,59.0,-100.00,SW,221,12.0,21.0,58,0.00,,,0.00,970.000000,,2013-04-10 20:03:00,
2013-04-10 16:33:00,75.0,60.0,-100.00,SW,222,12.0,22.0,60,0.00,,,0.00,837.000000,,2013-04-10 20:33:00,
2013-04-10 16:43:00,75.0,60.0,-100.00,SW,222,12.0,22.0,60,0.00,,,0.00,837.000000,,2013-04-10 20:43:00,
2013-04-10 16:53:00,75.0,60.0,-100.00,SW,222,12.0,22.0,60,0.00,,,0.00,837.000000,,2013-04-10 20:53:00,
2013-04-10 17:03:00,75.0,60.0,-100.00,SW,222,12.0,22.0,60,0.00,,,0.00,837.000000,,2013-04-10 21:03:00,
2013-04-10 17:33:00,73.0,59.0,-100.00,SSW,211,12.0,24.0,62,0.00,,,0.00,651.000000,,2013-04-10 21:33:00,
2013-04-10 17:43:00,73.0,59.0,-100.00,SSW,211,12.0,24.0,62,0.00,,,0.00,651.000000,,2013-04-10 21:43:00,
2013-04-10 17:53:00,73.0,59.0,-100.00,SSW,211,12.0,24.0,62,0.00,,,0.00,651.000000,,2013-04-10 21:53:00,
2013-04-10 18:03:00,73.0,59.0,-100.00,SSW,211,12.0,24.0,62,0.00,,,0.00,651.000000,,2013-04-10 22:03:00,
2013-04-10 18:34:00,70.0,61.0,-100.00,SW,216,12.0,22.0,72,0.00,,,0.00,425.000000,,2013-04-10 22:34:00,
2013-04-10 18:43:00,70.0,61.0,-100.00,SW,216,12.0,22.0,72,0.00,,,0.00,425.000000,,2013-04-10 22:43:00,
2013-04-10 18:53:00,70.0,61.0,-100.00,SW,216,12.0,22.0,72,0.00,,,0.00,425.000000,,2013-04-10 22:53:00,
2013-04-10 19:03:00,70.0,61.0,-100.00,SW,216,12.0,22.0,72,0.00,,,0.00,425.000000,,2013-04-10 23:03:00,
2013-04-10 19:33:00,68.0,59.0,-100.00,SW,218,11.0,20.0,74,0.00,,,0.00,187.000000,,2013-04-10 23:33:00,
2013-04-10 19:43:00,68.0,59.0,-100.00,SW,218,11.0,20.0,74,0.00,,,0.00,187.000000,,2013-04-10 23:43:00,
2013-04-10 19:53:00,68.0,59.0,-100.00,SW,218,11.0,20.0,74,0.00,,,0.00,187.000000,,2013-04-10 23:53:00,
2013-04-10 20:02:00,68.0,59.0,-100.00,SW,218,11.0,20.0,74,0.00,,,0.00,187.000000,,2013-04-11 00:02:00,
2013-04-10 20:32:00,66.0,60.0,-100.00,SSW,210,10.0,19.0,81,0.00,,,0.00,19.000000,,2013-04-11 00:32:00,
2013-04-10 20:43:00,66.0,60.0,-100.00,SSW,210,10.0,19.0,81,0.00,,,0.00,19.000000,,2013-04-11 00:43:00,
2013-04-10 20:53:00,66.0,60.0,-100.00,SSW,210,10.0,19.0,81,0.00,,,0.00,19.000000,,2013-04-11 00:53:00,
2013-04-10 21:02:00,66.0,60.0,-100.00,SSW,210,10.0,19.0,81,0.00,,,0.00,19.000000,,2013-04-11 01:02:00,
2013-04-10 21:33:00,66.0,60.0,-100.00,SW,216,9.0,19.0,80,0.00,,,0.00,0.000000,,2013-04-11 01:33:00,
2013-04-10 21:42:00,66.0,60.0,-100.00,SW,216,9.0,19.0,80,0.00,,,0.00,0.000000,,2013-04-11 01:42:00,
2013-04-10 21:52:00,66.0,60.0,-100.00,SW,216,9.0,19.0,80,0.00,,,0.00,0.000000,,2013-04-11 01:52:00,
2013-04-10 22:03:00,66.0,60.0,-100.00,SW,216,9.0,19.0,80,0.00,,,0.00,0.000000,,2013-04-11 02:03:00,
2013-04-10 22:32:00,65.0,60.0,-100.00,SW,224,8.0,15.0,83,0.00,,,0.00,0.000000,,2013-04-11 02:32:00,
2013-04-10 22:42:00,65.0,60.0,-100.00,SW,224,8.0,15.0,83,0.00,,,0.00,0.000000,,2013-04-11 02:42:00,
2013-04-10 22:53:00,65.0,60.0,-100.00,SW,224,8.0,15.0,83,0.00,,,0.00,0.000000,,2013-04-11 02:53:00,
2013-04-10 23:02:00,65.0,60.0,-100.00,SW,224,8.0,15.0,83,0.00,,,0.00,0.000000,,2013-04-11 03:02:00,
2013-04-10 23:33:00,65.0,60.0,-100.00,SW,221,8.0,15.0,84,0.00,,,0.00,0.000000,,2013-04-11 03:33:00,
2013-04-10 23:43:00,65.0,60.0,-100.00,SW,221,8.0,15.0,84,0.00,,,0.00,0.000000,,2013-04-11 03:43:00,
2013-04-10 23:54:00,65.0,60.0,-100.00,SW,221,8.0,15.0,84,0.00,,,0.00,0.000000,,2013-04-11 03:54:00,